Accueil
METAR-TAF:

METAR-TAF

Aéroports :

Bahreïn, Bahreïn

Aéroport international de Bahreïn

latitude: 26-16N, longitude: 050-39E, altitude: 2 m

Observation

Le bulletin a été fait il y a 22 minutes, à 16:00 UTC
Vent 2 kt de direction variable
Température 33°C
Humidité 49%
Pression 1007 hPa
Visibilité 10 km ou plus
pas de nuages en-dessous de 1500 mètres et pas de cumulonimbus.

METAR: OBBI 261600Z VRB02KT CAVOK 33/21 Q1007 NOSIG

Heure: 19:22 (16:22 UTC)

Prévision

Le bulletin a été fait il y a 5 heures et 22 minutes, à 11:00 UTC
Prévision valable du 26 à 12 UTC au 27 à 18 UTC
Vent 10 kt de nord
Visibilité 10 km ou plus
pas de nuages en-dessous de 1500 mètres et pas de cumulonimbus.
Evoluant progressivement
du 26 à 15 UTC au 26 à 18 UTC
Vent 5 kt de direction variable

TAF: OBBI 261100Z 2612/2718 36010KT CAVOK BECMG 2615/2618 VRB05KT

Observations et prévisions météorologiques de plus de 4000 aéroports (messages METAR et TAF).

Les stations disponibles sont représentées par des disques jaunes et rouges sur la carte.

Passer la souris dessus pour voir le nom de la station.

Cliquer dessus pour voir les observations et prévisions météorologiques.

Pour changer de carte: cliquez sur les boutons verts avec une croix noire pour zoomer, sur le bouton vert avec un tiret pour effectuer un zoom arrière, ou sur les flèches vertes pour les cartes adjacentes.


METAR-TAF: